createdAt,value
2019-04-05T00:02:21.630Z,96981.52
2019-04-05T00:04:55.674Z,96977.48
2019-04-05T00:07:29.644Z,96979.36
2019-04-05T00:10:02.785Z,96972.76
2019-04-05T00:12:35.947Z,96974.44
2019-04-05T00:15:15.461Z,96972.43
2019-04-05T00:17:43.937Z,96979.67
2019-04-05T00:20:18.315Z,96981.84
2019-04-05T00:22:52.081Z,96982.67
2019-04-05T00:25:25.669Z,96981.66
2019-04-05T00:27:57.672Z,96974.45
2019-04-05T00:30:30.312Z,96976.41
2019-04-05T00:33:03.720Z,96972.91
2019-04-05T00:35:37.319Z,96973.59
2019-04-05T00:38:08.319Z,96972.60
2019-04-05T00:40:41.436Z,96974.24
2019-04-05T00:43:14.570Z,96970.91
2019-04-05T00:45:47.287Z,96967.66
2019-04-05T00:48:20.985Z,96960.42
2019-04-05T00:50:54.120Z,96955.30
2019-04-05T00:53:27.301Z,96944.47
2019-04-05T00:55:58.905Z,96955.62
2019-04-05T00:58:31.262Z,96951.66
2019-04-05T01:01:04.548Z,96955.31
2019-04-05T01:03:38.915Z,96947.24
2019-04-05T01:06:12.009Z,96949.05
2019-04-05T01:08:47.228Z,96953.36
2019-04-05T01:11:19.992Z,96952.31
2019-04-05T01:13:54.445Z,96950.19
2019-04-05T01:16:28.300Z,96956.92
2019-04-05T01:19:03.997Z,96960.22
2019-04-05T01:21:44.075Z,96954.94
2019-04-05T01:24:20.918Z,96963.84
2019-04-05T01:26:56.398Z,96969.64
2019-04-05T01:29:30.308Z,96970.59
2019-04-05T01:32:02.710Z,96971.68
2019-04-05T01:34:35.822Z,96983.59
2019-04-05T01:37:09.263Z,96982.30
2019-04-05T01:39:43.025Z,96985.94
2019-04-05T01:42:17.572Z,96991.52
2019-04-05T01:44:52.110Z,96993.16
2019-04-05T01:47:25.527Z,96993.22
2019-04-05T01:49:58.658Z,97002.58
2019-04-05T01:52:32.100Z,97003.70
2019-04-05T01:55:05.556Z,97008.81
2019-04-05T01:57:38.430Z,97008.81
2019-04-05T02:00:13.208Z,97012.91
2019-04-05T02:02:46.889Z,97017.86
2019-04-05T02:05:20.517Z,97021.59
2019-04-05T02:07:53.876Z,97023.88
2019-04-05T02:10:27.211Z,97030.72
2019-04-05T02:13:00.777Z,97023.13
2019-04-05T02:15:36.308Z,97018.20
2019-04-05T02:18:10.063Z,97025.00
2019-04-05T02:20:42.724Z,97022.36
2019-04-05T02:23:15.854Z,97023.16
2019-04-05T02:25:49.183Z,97021.68
2019-04-05T02:28:22.211Z,97018.17
2019-04-05T02:30:54.932Z,97013.61
2019-04-05T02:33:27.635Z,97011.45
2019-04-05T02:36:01.061Z,97002.06
2019-04-05T02:38:34.782Z,97009.33
2019-04-05T02:41:09.840Z,97008.33
2019-04-05T02:43:44.898Z,97013.47
2019-04-05T02:46:23.950Z,97017.08
2019-04-05T02:48:55.190Z,97016.41
2019-04-05T02:51:31.724Z,97015.30
2019-04-05T02:54:05.293Z,97012.66
2019-04-05T02:56:40.205Z,96995.53
2019-04-05T02:59:13.869Z,96997.65
2019-04-05T03:01:47.866Z,96995.47
2019-04-05T03:04:21.233Z,96996.00
2019-04-05T03:06:55.358Z,97001.42
2019-04-05T03:09:29.141Z,96998.71
2019-04-05T03:12:03.719Z,97003.38
2019-04-05T03:14:39.446Z,97011.45
2019-04-05T03:17:13.430Z,97013.06
2019-04-05T03:19:48.787Z,97014.53
2019-04-05T03:22:24.498Z,97010.45
2019-04-05T03:24:59.969Z,97015.41
2019-04-05T03:27:37.556Z,97017.41
2019-04-05T03:30:10.950Z,97016.70
2019-04-05T03:32:44.455Z,97021.34
2019-04-05T03:35:18.131Z,97027.88
2019-04-05T03:37:51.231Z,97033.05
2019-04-05T03:40:25.414Z,97025.46
2019-04-05T03:42:59.821Z,97038.63
2019-04-05T03:45:33.568Z,97038.23
2019-04-05T03:48:07.629Z,97041.50
2019-04-05T03:50:48.294Z,97044.19
2019-04-05T03:53:23.266Z,97037.92
2019-04-05T03:55:57.039Z,97036.23
2019-04-05T03:58:31.049Z,97039.08
2019-04-05T04:01:05.309Z,97040.23
2019-04-05T04:03:39.289Z,97037.70
2019-04-05T04:06:12.887Z,97034.74
2019-04-05T04:08:47.018Z,97035.75
2019-04-05T04:11:20.961Z,97035.20
2019-04-05T04:13:54.358Z,97035.53
2019-04-05T04:16:29.122Z,97041.47
2019-04-05T04:19:03.021Z,97031.22
2019-04-05T04:21:48.420Z,97029.61
2019-04-05T04:24:22.744Z,97032.28
2019-04-05T04:26:57.023Z,97031.95
2019-04-05T04:29:31.166Z,97044.89
2019-04-05T04:32:05.456Z,97050.78
2019-04-05T04:34:39.163Z,97049.25
2019-04-05T04:37:12.489Z,97048.45
2019-04-05T04:39:46.028Z,97054.64
2019-04-05T04:42:20.774Z,97052.73
2019-04-05T04:44:54.881Z,97051.08
2019-04-05T04:47:28.667Z,97054.81
2019-04-05T04:50:02.336Z,97061.93
2019-04-05T04:52:36.972Z,97067.35
2019-04-05T04:55:12.861Z,97071.32
2019-04-05T04:57:46.978Z,97074.27
2019-04-05T05:00:21.136Z,97069.17
2019-04-05T05:03:08.189Z,97075.45
2019-04-05T05:05:40.586Z,97074.35
2019-04-05T05:08:14.524Z,97082.11
2019-04-05T05:10:48.403Z,97075.84
2019-04-05T05:13:22.166Z,97088.67
2019-04-05T05:15:56.078Z,97082.70
2019-04-05T05:18:29.664Z,97080.32
2019-04-05T05:21:02.069Z,97085.66
2019-04-05T05:23:35.655Z,97086.58
2019-04-05T05:26:09.728Z,97084.80
2019-04-05T05:28:43.983Z,97084.23
2019-04-05T05:31:17.805Z,97084.74
2019-04-05T05:33:51.716Z,97078.34
2019-04-05T05:36:25.905Z,97079.56
2019-04-05T05:38:59.766Z,97074.91
2019-04-05T05:41:33.391Z,97078.55
2019-04-05T05:44:06.997Z,97079.19
2019-04-05T05:46:40.843Z,97079.48
2019-04-05T05:49:15.183Z,97083.46
2019-04-05T05:51:49.987Z,97087.47
2019-04-05T05:54:23.848Z,97088.63
2019-04-05T05:56:57.619Z,97092.98
2019-04-05T05:59:31.086Z,97094.05
2019-04-05T06:02:02.410Z,97086.55
2019-04-05T06:04:35.664Z,97093.14
2019-04-05T06:07:09.061Z,97088.92
2019-04-05T06:09:47.618Z,97094.63
2019-04-05T06:12:20.558Z,97089.83
2019-04-05T06:14:54.212Z,97090.55
2019-04-05T06:17:27.995Z,97095.36
2019-04-05T06:20:02.569Z,97097.64
2019-04-05T06:22:36.978Z,97095.83
2019-04-05T06:25:11.949Z,97098.39
2019-04-05T06:27:46.108Z,97102.84
2019-04-05T06:30:20.379Z,97100.05
2019-04-05T06:32:54.735Z,97098.56
2019-04-05T06:35:27.937Z,97095.91
2019-04-05T06:38:01.948Z,97091.66
2019-04-05T06:40:41.154Z,97099.55
2019-04-05T06:43:14.652Z,97090.50
2019-04-05T06:45:50.036Z,97097.57
2019-04-05T06:48:24.267Z,97094.61
2019-04-05T06:50:57.877Z,97098.19
2019-04-05T06:53:32.649Z,97093.58
2019-04-05T06:56:06.335Z,97095.98
2019-04-05T06:58:40.434Z,97093.05
2019-04-05T07:01:13.949Z,97096.99
2019-04-05T07:03:46.038Z,97101.27
2019-04-05T07:06:18.826Z,97100.28
2019-04-05T07:08:54.051Z,97105.59
2019-04-05T07:11:27.549Z,97100.41
2019-04-05T07:14:01.022Z,97102.76
2019-04-05T07:16:33.015Z,97090.47
2019-04-05T07:19:10.143Z,97085.35
2019-04-05T07:21:43.682Z,97078.60
2019-04-05T07:24:18.074Z,97088.71
2019-04-05T07:26:52.348Z,97083.88
2019-04-05T07:29:26.365Z,97084.20
2019-04-05T07:32:00.126Z,97088.78
2019-04-05T07:34:33.865Z,97099.40
2019-04-05T07:37:07.954Z,97105.52
2019-04-05T07:39:42.304Z,97104.83
2019-04-05T07:42:16.150Z,97101.92
2019-04-05T07:44:49.583Z,97099.45
2019-04-05T07:47:21.673Z,97100.77
2019-04-05T07:49:54.340Z,97105.41
2019-04-05T07:52:27.483Z,97107.00
2019-04-05T07:55:01.054Z,97108.80
2019-04-05T07:57:34.851Z,97112.17
2019-04-05T08:00:11.499Z,97106.30
2019-04-05T08:02:45.141Z,97114.56
2019-04-05T08:05:17.792Z,97120.97
2019-04-05T08:07:53.248Z,97118.53
2019-04-05T08:10:27.939Z,97119.50
2019-04-05T08:13:02.858Z,97122.08
2019-04-05T08:15:37.445Z,97129.17
2019-04-05T08:18:11.134Z,97129.25
2019-04-05T08:20:44.183Z,97126.48
2019-04-05T08:23:17.039Z,97136.03
2019-04-05T08:25:50.466Z,97143.73
2019-04-05T08:28:23.800Z,97139.14
2019-04-05T08:30:57.203Z,97129.98
2019-04-05T08:33:30.675Z,97130.67
2019-04-05T08:36:04.612Z,97133.95
2019-04-05T08:38:43.680Z,97127.79
2019-04-05T08:41:16.730Z,97137.41
2019-04-05T08:43:49.802Z,97140.94
2019-04-05T08:46:22.561Z,97143.81
2019-04-05T08:48:55.325Z,97140.20
2019-04-05T08:51:28.542Z,97138.89
2019-04-05T08:54:00.220Z,97143.01
2019-04-05T08:56:34.562Z,97147.32
2019-04-05T08:59:07.241Z,97150.12
2019-04-05T09:01:40.984Z,97154.09
2019-04-05T09:04:14.717Z,97147.80
2019-04-05T09:06:48.156Z,97152.38
2019-04-05T09:09:20.171Z,97161.68
2019-04-05T09:11:53.294Z,97154.06
2019-04-05T09:14:26.900Z,97160.50
2019-04-05T09:16:59.959Z,97156.86
2019-04-05T09:19:32.781Z,97149.13
2019-04-05T09:22:05.158Z,97155.24
2019-04-05T09:24:38.514Z,97150.46
2019-04-05T09:27:11.868Z,97146.31
2019-04-05T09:29:45.548Z,97149.15
2019-04-05T09:32:19.035Z,97150.44
2019-04-05T09:34:50.447Z,97156.41
2019-04-05T09:37:22.871Z,97159.39
2019-04-05T09:39:55.903Z,97162.36
2019-04-05T09:42:28.754Z,97166.32
2019-04-05T09:45:00.574Z,97169.91
2019-04-05T09:47:33.638Z,97162.76
2019-04-05T09:50:07.315Z,97168.33
2019-04-05T09:52:40.334Z,97173.94
2019-04-05T09:55:13.792Z,97183.50
2019-04-05T09:57:47.432Z,97187.41
2019-04-05T10:00:28.496Z,97185.50
2019-04-05T10:03:01.910Z,97179.56
2019-04-05T10:05:33.805Z,97177.74
2019-04-05T10:08:07.015Z,97184.19
2019-04-05T10:10:40.199Z,97189.78
2019-04-05T10:13:13.397Z,97183.03
2019-04-05T10:15:51.473Z,97178.22
2019-04-05T10:18:51.488Z,97176.55
2019-04-05T10:21:27.704Z,97169.24
2019-04-05T10:24:02.058Z,97182.38
2019-04-05T10:26:36.375Z,97178.58
2019-04-05T10:29:10.537Z,97179.70
2019-04-05T10:31:46.059Z,97176.09
2019-04-05T10:34:19.834Z,97173.55
2019-04-05T10:36:53.262Z,97175.13
2019-04-05T10:39:25.063Z,97176.23
2019-04-05T10:42:03.769Z,97168.48
2019-04-05T10:44:33.981Z,97174.80
2019-04-05T10:47:07.912Z,97166.84
2019-04-05T10:50:06.844Z,97159.25
2019-04-05T10:52:41.519Z,97157.86
2019-04-05T10:55:17.464Z,97156.66
2019-04-05T10:57:52.707Z,97156.63
2019-04-05T11:00:29.326Z,97150.94
2019-04-05T11:03:02.748Z,97144.31
2019-04-05T11:05:34.473Z,97144.17
2019-04-05T11:08:11.339Z,97144.66
2019-04-05T11:10:44.338Z,97136.86
2019-04-05T11:13:19.110Z,97133.17
2019-04-05T11:15:53.971Z,97134.86
2019-04-05T11:18:27.765Z,97136.38
2019-04-05T11:21:02.042Z,97135.00
2019-04-05T11:23:46.147Z,97132.31
2019-04-05T11:26:20.663Z,97124.45
2019-04-05T11:28:57.979Z,97123.84
2019-04-05T11:31:32.140Z,97123.95
2019-04-05T11:34:05.593Z,97119.23
2019-04-05T11:36:40.845Z,97117.34
2019-04-05T11:39:14.557Z,97120.95
2019-04-05T11:41:51.709Z,97113.07
2019-04-05T11:44:28.742Z,97113.83
2019-04-05T11:47:03.345Z,97103.45
2019-04-05T11:49:39.508Z,97108.08
2019-04-05T11:52:12.860Z,97112.62
2019-04-05T11:54:46.692Z,97108.97
2019-04-05T11:57:22.413Z,97110.84
2019-04-05T11:59:59.995Z,97113.04
2019-04-05T12:02:43.081Z,97116.69
2019-04-05T12:05:17.985Z,97115.56
2019-04-05T12:07:51.704Z,97114.45
2019-04-05T12:10:26.577Z,97107.72
2019-04-05T12:13:00.338Z,97097.70
2019-04-05T12:15:35.767Z,97102.72
2019-04-05T12:18:12.049Z,97090.83
2019-04-05T12:20:50.935Z,97089.55
2019-04-05T12:23:22.317Z,97096.27
2019-04-05T12:25:56.006Z,97096.27
2019-04-05T12:28:30.481Z,97095.01
2019-04-05T12:31:05.161Z,97096.44
2019-04-05T12:33:39.731Z,97093.31
2019-04-05T12:36:13.738Z,97091.59
2019-04-05T12:38:47.860Z,97078.66
2019-04-05T12:41:21.980Z,97079.31
2019-04-05T12:43:53.913Z,97071.74
2019-04-05T12:46:28.853Z,97070.91
2019-04-05T12:49:02.663Z,97068.94
2019-04-05T12:51:36.850Z,97068.50
2019-04-05T12:54:13.202Z,97058.58
2019-04-05T12:56:49.985Z,97062.82
2019-04-05T12:59:25.156Z,97063.84
2019-04-05T13:02:00.178Z,97064.22
2019-04-05T13:04:34.308Z,97065.09
2019-04-05T13:07:06.995Z,97076.70
2019-04-05T13:09:45.822Z,97065.79
2019-04-05T13:12:18.280Z,97073.48
2019-04-05T13:14:53.448Z,97077.91
2019-04-05T13:17:31.002Z,97079.94
2019-04-05T13:20:04.876Z,97087.78
2019-04-05T13:22:39.366Z,97084.38
2019-04-05T13:25:12.915Z,97077.18
2019-04-05T13:27:46.508Z,97077.83
2019-04-05T13:30:21.127Z,97083.81
2019-04-05T13:32:58.322Z,97079.50
2019-04-05T13:35:33.389Z,97077.03
2019-04-05T13:38:06.863Z,97083.86
2019-04-05T13:40:40.618Z,97075.24
2019-04-05T13:43:17.631Z,97076.88
2019-04-05T13:45:51.675Z,97071.95
2019-04-05T13:48:25.715Z,97055.50
2019-04-05T13:51:00.830Z,97052.39
2019-04-05T13:53:40.570Z,97054.42
2019-04-05T13:56:13.491Z,97050.13
2019-04-05T13:58:47.082Z,97043.59
2019-04-05T14:01:21.401Z,97040.75
2019-04-05T14:03:56.130Z,97036.89
2019-04-05T14:06:30.657Z,97036.02
2019-04-05T14:09:03.828Z,97033.38
2019-04-05T14:11:37.635Z,97018.45
2019-04-05T14:14:12.655Z,97024.02
2019-04-05T14:16:47.632Z,97030.34
2019-04-05T14:19:22.860Z,97025.15
2019-04-05T14:22:08.248Z,97030.48
2019-04-05T14:24:33.656Z,97030.08
2019-04-05T14:27:05.284Z,97026.48
2019-04-05T14:29:38.792Z,97027.81
2019-04-05T14:32:21.183Z,97021.22
2019-04-05T14:34:54.808Z,97020.08
2019-04-05T14:37:30.966Z,97012.36
2019-04-05T14:40:04.201Z,97014.13
2019-04-05T14:42:37.342Z,97019.77
2019-04-05T14:45:12.838Z,97021.65
2019-04-05T14:47:47.857Z,97019.97
2019-04-05T14:50:21.429Z,97019.42
2019-04-05T14:52:55.862Z,97017.79
2019-04-05T14:55:37.083Z,97015.97
2019-04-05T14:58:14.090Z,97017.11
2019-04-05T15:00:48.477Z,97011.59
2019-04-05T15:03:22.852Z,97005.41
2019-04-05T15:05:59.033Z,97008.38
2019-04-05T15:08:32.069Z,97008.48
2019-04-05T15:11:05.044Z,97005.69
2019-04-05T15:13:37.252Z,97006.31
2019-04-05T15:16:13.570Z,97002.50
2019-04-05T15:18:45.721Z,97007.15
2019-04-05T15:21:19.466Z,97002.64
2019-04-05T15:23:53.015Z,97012.28
2019-04-05T15:26:27.261Z,96998.91
2019-04-05T15:29:01.264Z,97003.84
2019-04-05T15:31:35.061Z,96996.72
2019-04-05T15:34:08.971Z,96997.43
2019-04-05T15:36:41.960Z,96996.95
2019-04-05T15:39:14.994Z,96990.99
2019-04-05T15:41:49.097Z,96992.74
2019-04-05T15:44:22.952Z,96986.45
2019-04-05T15:46:55.776Z,96992.92
2019-04-05T15:49:29.354Z,96991.91
2019-04-05T15:52:03.273Z,96999.54
2019-04-05T15:54:37.025Z,96997.51
2019-04-05T15:57:11.074Z,96985.39
2019-04-05T15:59:45.352Z,96988.98
2019-04-05T16:02:19.634Z,96978.79
2019-04-05T16:04:53.754Z,96981.66
2019-04-05T16:07:27.288Z,96982.38
2019-04-05T16:10:01.188Z,96977.27
2019-04-05T16:12:35.382Z,96983.30
2019-04-05T16:15:10.620Z,96978.74
2019-04-05T16:17:44.625Z,96980.05
2019-04-05T16:20:19.618Z,96987.70
2019-04-05T16:22:53.312Z,96989.87
2019-04-05T16:25:26.792Z,96983.63
2019-04-05T16:28:00.370Z,96985.48
2019-04-05T16:30:33.854Z,96974.92
2019-04-05T16:33:07.360Z,96979.12
2019-04-05T16:35:41.607Z,96977.78
2019-04-05T16:38:15.215Z,96968.40
2019-04-05T16:40:48.996Z,96974.07
2019-04-05T16:43:25.046Z,96967.83
2019-04-05T16:45:58.602Z,96967.00
2019-04-05T16:48:31.740Z,96959.08
2019-04-05T16:51:05.322Z,96962.08
2019-04-05T16:53:57.609Z,96956.89
2019-04-05T16:56:32.088Z,96962.31
2019-04-05T16:59:07.383Z,96961.28
2019-04-05T17:01:41.066Z,96961.86
2019-04-05T17:04:14.849Z,96967.23
2019-04-05T17:06:47.902Z,96968.42
2019-04-05T17:09:21.780Z,96966.45
2019-04-05T17:11:55.893Z,96971.21
2019-04-05T17:14:28.680Z,96971.83
2019-04-05T17:17:02.030Z,96970.58
2019-04-05T17:19:35.829Z,96976.19
2019-04-05T17:22:09.922Z,96982.66
2019-04-05T17:24:50.910Z,96975.66
2019-04-05T17:27:24.827Z,96975.20
2019-04-05T17:29:59.624Z,96976.61
2019-04-05T17:32:32.868Z,96979.17
2019-04-05T17:35:06.075Z,96980.20
2019-04-05T17:37:39.775Z,96983.61
2019-04-05T17:40:14.301Z,96977.02
2019-04-05T17:42:46.960Z,96981.18
2019-04-05T17:45:19.909Z,96979.59
2019-04-05T17:47:53.983Z,96976.66
2019-04-05T17:50:35.378Z,96980.07
2019-04-05T17:53:13.440Z,96986.68
2019-04-05T17:55:43.743Z,96988.08
2019-04-05T17:58:18.430Z,96990.58
2019-04-05T18:00:52.258Z,96997.16
2019-04-05T18:03:26.816Z,96989.33
2019-04-05T18:06:00.281Z,96998.70
2019-04-05T18:08:33.879Z,97005.06
2019-04-05T18:11:08.608Z,97006.53
2019-04-05T18:13:41.334Z,97008.70
2019-04-05T18:16:14.986Z,97010.36
2019-04-05T18:18:48.991Z,97020.70
2019-04-05T18:21:23.080Z,97019.80
2019-04-05T18:23:56.099Z,97016.41
2019-04-05T18:26:29.971Z,97023.70
2019-04-05T18:29:03.646Z,97023.29
2019-04-05T18:31:37.396Z,97028.21
2019-04-05T18:34:11.548Z,97025.92
2019-04-05T18:36:45.045Z,97031.16
2019-04-05T18:39:18.904Z,97025.40
2019-04-05T18:41:52.706Z,97026.58
2019-04-05T18:44:25.803Z,97024.83
2019-04-05T18:46:59.696Z,97032.11
2019-04-05T18:49:32.646Z,97036.44
2019-04-05T18:52:06.293Z,97042.09
2019-04-05T18:54:39.960Z,97037.89
2019-04-05T18:57:14.379Z,97044.82
2019-04-05T18:59:48.601Z,97051.52
2019-04-05T19:02:21.948Z,97050.94
2019-04-05T19:04:54.710Z,97055.94
2019-04-05T19:07:28.152Z,97058.27
2019-04-05T19:10:02.253Z,97063.89
2019-04-05T19:12:35.781Z,97068.28
2019-04-05T19:15:07.873Z,97065.25
2019-04-05T19:17:41.279Z,97062.19
2019-04-05T19:20:14.844Z,97066.09
2019-04-05T19:22:48.740Z,97063.78
2019-04-05T19:25:22.845Z,97067.86
2019-04-05T19:27:56.753Z,97062.15
2019-04-05T19:48:39.925Z,97080.95
2019-04-05T19:51:13.209Z,97081.23
2019-04-05T19:53:46.052Z,97078.62
2019-04-05T19:56:18.741Z,97074.78
2019-04-05T19:58:53.053Z,97070.16
2019-04-05T20:01:27.302Z,97069.69
2019-04-05T20:04:00.662Z,97068.22
2019-04-05T20:06:34.250Z,97071.86
2019-04-05T20:09:09.255Z,97063.43
2019-04-05T20:11:43.407Z,97071.70
2019-04-05T20:14:17.379Z,97064.77
2019-04-05T20:16:51.317Z,97070.05
2019-04-05T20:19:24.893Z,97074.06
2019-04-05T20:21:58.671Z,97077.87
2019-04-05T20:24:32.131Z,97075.54
2019-04-05T20:27:06.343Z,97073.73
2019-04-05T20:29:40.999Z,97075.73
2019-04-05T20:32:14.267Z,97077.75
2019-04-05T20:34:47.172Z,97089.32
2019-04-05T20:37:20.498Z,97083.05
2019-04-05T20:39:54.213Z,97084.52
2019-04-05T20:42:28.383Z,97090.00
2019-04-05T20:45:01.355Z,97092.95
2019-04-05T20:47:34.150Z,97089.67
2019-04-05T20:50:09.218Z,97084.22
2019-04-05T20:52:43.186Z,97085.36
2019-04-05T20:55:17.239Z,97083.72
2019-04-05T20:57:50.660Z,97079.59
2019-04-05T21:00:22.727Z,97078.77
2019-04-05T21:02:55.276Z,97076.77
2019-04-05T21:05:29.196Z,97077.27
2019-04-05T21:08:02.655Z,97081.09
2019-04-05T21:10:34.698Z,97078.94
2019-04-05T21:13:07.712Z,97086.52
2019-04-05T21:15:42.009Z,97086.03
2019-04-05T21:18:15.529Z,97087.33
2019-04-05T21:20:47.311Z,97088.66
2019-04-05T21:23:20.670Z,97089.30
2019-04-05T21:25:54.272Z,97091.95
2019-04-05T21:28:27.595Z,97089.48
2019-04-05T21:31:00.710Z,97095.56
2019-04-05T21:33:34.370Z,97091.92
2019-04-05T21:36:08.152Z,97092.89
2019-04-05T21:38:41.680Z,97094.84
2019-04-05T21:41:16.063Z,97096.66
2019-04-05T21:43:49.852Z,97099.76
2019-04-05T21:46:22.799Z,97099.09
2019-04-05T21:48:55.879Z,97101.34
2019-04-05T21:51:29.246Z,97099.86
2019-04-05T21:54:03.432Z,97107.38
2019-04-05T21:56:37.207Z,97107.86
2019-04-05T21:59:11.600Z,97106.80
2019-04-05T22:01:45.303Z,97109.12
2019-04-05T22:04:18.739Z,97112.05
2019-04-05T22:06:51.090Z,97108.72
2019-04-05T22:09:23.768Z,97110.78
2019-04-05T22:11:58.361Z,97107.97
2019-04-05T22:14:32.954Z,97111.97
2019-04-05T22:17:06.966Z,97115.05
2019-04-05T22:19:40.056Z,97107.07
2019-04-05T22:22:13.426Z,97113.91
2019-04-05T22:24:46.769Z,97107.55
2019-04-05T22:27:19.562Z,97113.24
2019-04-05T22:29:52.367Z,97106.48
2019-04-05T22:32:25.679Z,97106.97
2019-04-05T22:34:58.905Z,97107.08
2019-04-05T22:37:31.870Z,97112.20
2019-04-05T22:40:05.490Z,97112.73
2019-04-05T22:42:39.210Z,97111.77
2019-04-05T22:45:12.962Z,97113.93
2019-04-05T22:47:46.916Z,97116.35
2019-04-05T22:50:20.623Z,97122.30
2019-04-05T22:52:54.785Z,97120.48
2019-04-05T22:55:29.550Z,97122.47
2019-04-05T22:58:03.235Z,97119.54
2019-04-05T23:00:37.083Z,97120.82
2019-04-05T23:03:11.665Z,97117.13
2019-04-05T23:05:44.917Z,97113.19
2019-04-05T23:08:16.434Z,97116.07
2019-04-05T23:10:49.135Z,97118.56
2019-04-05T23:13:22.788Z,97115.92
2019-04-05T23:15:56.796Z,97116.94
2019-04-05T23:18:30.147Z,97114.95
2019-04-05T23:21:03.353Z,97115.84
2019-04-05T23:23:35.400Z,97125.40
2019-04-05T23:26:08.047Z,97123.80
2019-04-05T23:28:41.284Z,97123.34
2019-04-05T23:31:14.630Z,97129.17
2019-04-05T23:33:47.833Z,97126.45
2019-04-05T23:36:20.612Z,97125.69
2019-04-05T23:38:53.730Z,97124.52
2019-04-05T23:41:26.703Z,97125.59
2019-04-05T23:44:00.267Z,97129.45
2019-04-05T23:46:33.655Z,97123.83
2019-04-05T23:49:06.783Z,97119.55
2019-04-05T23:51:40.100Z,97118.84
2019-04-05T23:54:13.815Z,97120.41
2019-04-05T23:56:47.594Z,97126.28
2019-04-05T23:59:22.567Z,97137.01
